sensor_id;sensor_type;location;lat;lon;timestamp;P1;durP1;ratioP1;P2;durP2;ratioP2
8312;SDS011;4194;43.408;24.626;2024-02-16T00:02:02;31.30;;;16.10;;
8312;SDS011;4194;43.408;24.626;2024-02-16T00:04:28;33.73;;;18.00;;
8312;SDS011;4194;43.408;24.626;2024-02-16T00:06:54;29.67;;;18.90;;
8312;SDS011;4194;43.408;24.626;2024-02-16T00:09:20;32.60;;;18.00;;
8312;SDS011;4194;43.408;24.626;2024-02-16T00:11:46;37.07;;;20.27;;
8312;SDS011;4194;43.408;24.626;2024-02-16T00:14:13;31.37;;;20.63;;
8312;SDS011;4194;43.408;24.626;2024-02-16T00:16:39;31.63;;;21.23;;
8312;SDS011;4194;43.408;24.626;2024-02-16T00:19:05;34.40;;;22.07;;
8312;SDS011;4194;43.408;24.626;2024-02-16T00:21:30;32.87;;;21.63;;
8312;SDS011;4194;43.408;24.626;2024-02-16T00:23:56;39.50;;;22.93;;
8312;SDS011;4194;43.408;24.626;2024-02-16T00:26:21;34.60;;;22.27;;
8312;SDS011;4194;43.408;24.626;2024-02-16T00:28:48;34.60;;;24.30;;
8312;SDS011;4194;43.408;24.626;2024-02-16T00:31:14;40.33;;;25.00;;
8312;SDS011;4194;43.408;24.626;2024-02-16T00:33:39;38.87;;;25.70;;
8312;SDS011;4194;43.408;24.626;2024-02-16T00:36:06;36.30;;;24.70;;
8312;SDS011;4194;43.408;24.626;2024-02-16T00:38:32;45.10;;;27.87;;
8312;SDS011;4194;43.408;24.626;2024-02-16T00:40:58;40.57;;;27.37;;
8312;SDS011;4194;43.408;24.626;2024-02-16T00:43:23;34.10;;;24.00;;
8312;SDS011;4194;43.408;24.626;2024-02-16T00:45:49;38.93;;;25.07;;
8312;SDS011;4194;43.408;24.626;2024-02-16T00:48:15;37.87;;;24.00;;
8312;SDS011;4194;43.408;24.626;2024-02-16T00:50:40;35.93;;;24.67;;
8312;SDS011;4194;43.408;24.626;2024-02-16T00:53:07;40.53;;;23.23;;
8312;SDS011;4194;43.408;24.626;2024-02-16T00:55:33;35.87;;;23.73;;
8312;SDS011;4194;43.408;24.626;2024-02-16T00:57:59;43.60;;;22.50;;
8312;SDS011;4194;43.408;24.626;2024-02-16T01:00:24;33.90;;;23.17;;
8312;SDS011;4194;43.408;24.626;2024-02-16T01:02:51;32.40;;;22.90;;
8312;SDS011;4194;43.408;24.626;2024-02-16T01:05:19;31.10;;;23.77;;
8312;SDS011;4194;43.408;24.626;2024-02-16T01:07:45;29.63;;;22.30;;
8312;SDS011;4194;43.408;24.626;2024-02-16T01:10:11;37.47;;;23.00;;
8312;SDS011;4194;43.408;24.626;2024-02-16T01:12:39;28.37;;;20.33;;
8312;SDS011;4194;43.408;24.626;2024-02-16T01:15:05;25.10;;;19.83;;
8312;SDS011;4194;43.408;24.626;2024-02-16T01:17:32;27.37;;;20.70;;
8312;SDS011;4194;43.408;24.626;2024-02-16T01:19:59;28.57;;;21.13;;
8312;SDS011;4194;43.408;24.626;2024-02-16T01:22:24;28.07;;;20.80;;
8312;SDS011;4194;43.408;24.626;2024-02-16T01:24:50;28.23;;;19.20;;
8312;SDS011;4194;43.408;24.626;2024-02-16T01:27:16;25.37;;;18.07;;
8312;SDS011;4194;43.408;24.626;2024-02-16T01:29:41;27.63;;;18.03;;
8312;SDS011;4194;43.408;24.626;2024-02-16T01:32:07;26.27;;;19.33;;
8312;SDS011;4194;43.408;24.626;2024-02-16T01:34:34;29.53;;;17.70;;
8312;SDS011;4194;43.408;24.626;2024-02-16T01:37:00;28.17;;;20.17;;
8312;SDS011;4194;43.408;24.626;2024-02-16T01:39:26;28.87;;;20.93;;
8312;SDS011;4194;43.408;24.626;2024-02-16T01:41:52;34.07;;;21.37;;
8312;SDS011;4194;43.408;24.626;2024-02-16T01:44:17;24.07;;;18.07;;
8312;SDS011;4194;43.408;24.626;2024-02-16T01:46:43;25.80;;;18.53;;
8312;SDS011;4194;43.408;24.626;2024-02-16T01:49:09;25.17;;;18.87;;
8312;SDS011;4194;43.408;24.626;2024-02-16T01:51:36;25.27;;;18.37;;
8312;SDS011;4194;43.408;24.626;2024-02-16T01:54:02;25.07;;;19.03;;
8312;SDS011;4194;43.408;24.626;2024-02-16T01:56:28;25.80;;;19.20;;
8312;SDS011;4194;43.408;24.626;2024-02-16T01:58:54;23.07;;;17.10;;
8312;SDS011;4194;43.408;24.626;2024-02-16T02:01:20;23.63;;;15.77;;
8312;SDS011;4194;43.408;24.626;2024-02-16T02:03:46;28.43;;;18.47;;
8312;SDS011;4194;43.408;24.626;2024-02-16T02:06:12;33.13;;;20.90;;
8312;SDS011;4194;43.408;24.626;2024-02-16T02:08:38;30.87;;;21.53;;
8312;SDS011;4194;43.408;24.626;2024-02-16T02:11:03;27.77;;;19.30;;
8312;SDS011;4194;43.408;24.626;2024-02-16T02:13:30;28.17;;;19.70;;
8312;SDS011;4194;43.408;24.626;2024-02-16T02:15:56;25.57;;;19.63;;
8312;SDS011;4194;43.408;24.626;2024-02-16T02:18:24;28.80;;;20.70;;
8312;SDS011;4194;43.408;24.626;2024-02-16T02:20:50;28.23;;;21.37;;
8312;SDS011;4194;43.408;24.626;2024-02-16T02:23:15;24.17;;;17.70;;
8312;SDS011;4194;43.408;24.626;2024-02-16T02:25:41;24.70;;;17.70;;
8312;SDS011;4194;43.408;24.626;2024-02-16T02:28:07;25.40;;;18.77;;
8312;SDS011;4194;43.408;24.626;2024-02-16T02:30:33;24.43;;;17.50;;
8312;SDS011;4194;43.408;24.626;2024-02-16T02:32:59;21.47;;;15.70;;
8312;SDS011;4194;43.408;24.626;2024-02-16T02:35:24;21.53;;;16.27;;
8312;SDS011;4194;43.408;24.626;2024-02-16T02:37:50;22.40;;;15.70;;
8312;SDS011;4194;43.408;24.626;2024-02-16T02:40:16;25.77;;;18.53;;
8312;SDS011;4194;43.408;24.626;2024-02-16T02:42:42;28.83;;;18.93;;
8312;SDS011;4194;43.408;24.626;2024-02-16T02:45:07;30.97;;;21.90;;
8312;SDS011;4194;43.408;24.626;2024-02-16T02:47:33;22.00;;;17.07;;
8312;SDS011;4194;43.408;24.626;2024-02-16T02:49:59;21.37;;;16.60;;
8312;SDS011;4194;43.408;24.626;2024-02-16T02:52:25;24.50;;;16.80;;
8312;SDS011;4194;43.408;24.626;2024-02-16T02:54:50;21.33;;;15.63;;
8312;SDS011;4194;43.408;24.626;2024-02-16T02:57:16;20.37;;;14.87;;
8312;SDS011;4194;43.408;24.626;2024-02-16T02:59:42;20.07;;;15.13;;
8312;SDS011;4194;43.408;24.626;2024-02-16T03:02:10;19.93;;;16.10;;
8312;SDS011;4194;43.408;24.626;2024-02-16T03:04:35;20.30;;;16.00;;
8312;SDS011;4194;43.408;24.626;2024-02-16T03:07:01;26.40;;;17.93;;
8312;SDS011;4194;43.408;24.626;2024-02-16T03:09:27;24.20;;;17.57;;
8312;SDS011;4194;43.408;24.626;2024-02-16T03:11:53;23.90;;;18.27;;
8312;SDS011;4194;43.408;24.626;2024-02-16T03:14:19;23.53;;;18.40;;
8312;SDS011;4194;43.408;24.626;2024-02-16T03:16:44;26.77;;;17.97;;
8312;SDS011;4194;43.408;24.626;2024-02-16T03:19:10;30.13;;;18.53;;
8312;SDS011;4194;43.408;24.626;2024-02-16T03:21:36;23.83;;;18.60;;
8312;SDS011;4194;43.408;24.626;2024-02-16T03:24:02;28.77;;;19.07;;
8312;SDS011;4194;43.408;24.626;2024-02-16T03:26:29;23.43;;;18.23;;
8312;SDS011;4194;43.408;24.626;2024-02-16T03:28:55;23.40;;;17.23;;
8312;SDS011;4194;43.408;24.626;2024-02-16T03:31:22;23.37;;;17.63;;
8312;SDS011;4194;43.408;24.626;2024-02-16T03:33:51;22.67;;;17.73;;
8312;SDS011;4194;43.408;24.626;2024-02-16T03:36:17;22.50;;;17.43;;
8312;SDS011;4194;43.408;24.626;2024-02-16T03:38:44;22.73;;;18.00;;
8312;SDS011;4194;43.408;24.626;2024-02-16T03:41:14;26.27;;;17.43;;
8312;SDS011;4194;43.408;24.626;2024-02-16T03:43:44;26.07;;;17.40;;
8312;SDS011;4194;43.408;24.626;2024-02-16T03:46:10;27.60;;;17.37;;
8312;SDS011;4194;43.408;24.626;2024-02-16T03:48:36;26.07;;;18.27;;
8312;SDS011;4194;43.408;24.626;2024-02-16T03:51:02;25.10;;;18.57;;
8312;SDS011;4194;43.408;24.626;2024-02-16T03:53:30;36.37;;;20.23;;
8312;SDS011;4194;43.408;24.626;2024-02-16T03:55:56;30.47;;;19.43;;
8312;SDS011;4194;43.408;24.626;2024-02-16T03:58:22;29.33;;;20.03;;
8312;SDS011;4194;43.408;24.626;2024-02-16T04:00:48;26.30;;;19.67;;
8312;SDS011;4194;43.408;24.626;2024-02-16T04:03:14;30.37;;;19.50;;
8312;SDS011;4194;43.408;24.626;2024-02-16T04:05:41;22.80;;;18.33;;
8312;SDS011;4194;43.408;24.626;2024-02-16T04:08:06;24.33;;;17.07;;
8312;SDS011;4194;43.408;24.626;2024-02-16T04:10:32;25.20;;;17.87;;
8312;SDS011;4194;43.408;24.626;2024-02-16T04:12:59;22.20;;;16.00;;
8312;SDS011;4194;43.408;24.626;2024-02-16T04:15:25;20.63;;;15.37;;
8312;SDS011;4194;43.408;24.626;2024-02-16T04:17:51;26.77;;;13.77;;
8312;SDS011;4194;43.408;24.626;2024-02-16T04:20:17;24.60;;;15.60;;
8312;SDS011;4194;43.408;24.626;2024-02-16T04:22:43;21.83;;;13.97;;
8312;SDS011;4194;43.408;24.626;2024-02-16T04:25:09;31.37;;;14.43;;
8312;SDS011;4194;43.408;24.626;2024-02-16T04:27:35;19.30;;;13.77;;
8312;SDS011;4194;43.408;24.626;2024-02-16T04:30:02;24.23;;;14.30;;
8312;SDS011;4194;43.408;24.626;2024-02-16T04:32:28;26.30;;;15.60;;
8312;SDS011;4194;43.408;24.626;2024-02-16T04:34:55;20.57;;;13.77;;
8312;SDS011;4194;43.408;24.626;2024-02-16T04:37:24;19.10;;;13.90;;
8312;SDS011;4194;43.408;24.626;2024-02-16T04:39:50;23.10;;;13.83;;
8312;SDS011;4194;43.408;24.626;2024-02-16T04:42:17;20.60;;;14.00;;
8312;SDS011;4194;43.408;24.626;2024-02-16T04:44:42;27.87;;;15.23;;
8312;SDS011;4194;43.408;24.626;2024-02-16T04:47:08;30.50;;;17.27;;
8312;SDS011;4194;43.408;24.626;2024-02-16T04:49:34;29.50;;;16.43;;
8312;SDS011;4194;43.408;24.626;2024-02-16T04:52:01;25.57;;;17.40;;
8312;SDS011;4194;43.408;24.626;2024-02-16T04:54:28;22.50;;;16.33;;
8312;SDS011;4194;43.408;24.626;2024-02-16T04:56:53;21.43;;;14.77;;
8312;SDS011;4194;43.408;24.626;2024-02-16T04:59:19;22.57;;;15.83;;
8312;SDS011;4194;43.408;24.626;2024-02-16T05:01:45;23.50;;;18.37;;
8312;SDS011;4194;43.408;24.626;2024-02-16T05:04:12;26.50;;;18.63;;
8312;SDS011;4194;43.408;24.626;2024-02-16T05:06:44;27.63;;;18.63;;
8312;SDS011;4194;43.408;24.626;2024-02-16T05:09:11;28.17;;;18.03;;
8312;SDS011;4194;43.408;24.626;2024-02-16T05:11:37;29.67;;;19.37;;
8312;SDS011;4194;43.408;24.626;2024-02-16T05:14:02;31.33;;;18.90;;
8312;SDS011;4194;43.408;24.626;2024-02-16T05:16:28;30.33;;;20.50;;
8312;SDS011;4194;43.408;24.626;2024-02-16T05:18:57;32.07;;;18.80;;
8312;SDS011;4194;43.408;24.626;2024-02-16T05:21:22;28.23;;;17.97;;
8312;SDS011;4194;43.408;24.626;2024-02-16T05:23:48;33.10;;;17.50;;
8312;SDS011;4194;43.408;24.626;2024-02-16T05:26:14;23.63;;;18.47;;
8312;SDS011;4194;43.408;24.626;2024-02-16T05:28:39;27.30;;;17.33;;
8312;SDS011;4194;43.408;24.626;2024-02-16T05:31:14;30.27;;;16.57;;
8312;SDS011;4194;43.408;24.626;2024-02-16T05:33:47;34.00;;;17.93;;
8312;SDS011;4194;43.408;24.626;2024-02-16T05:36:16;25.07;;;17.10;;
8312;SDS011;4194;43.408;24.626;2024-02-16T05:38:43;26.70;;;16.80;;
8312;SDS011;4194;43.408;24.626;2024-02-16T05:41:09;28.73;;;18.23;;
8312;SDS011;4194;43.408;24.626;2024-02-16T05:43:36;31.17;;;18.77;;
8312;SDS011;4194;43.408;24.626;2024-02-16T05:46:03;38.00;;;17.17;;
8312;SDS011;4194;43.408;24.626;2024-02-16T05:48:32;34.53;;;17.20;;
8312;SDS011;4194;43.408;24.626;2024-02-16T05:51:02;32.13;;;17.90;;
8312;SDS011;4194;43.408;24.626;2024-02-16T05:53:30;39.53;;;21.70;;
8312;SDS011;4194;43.408;24.626;2024-02-16T05:55:56;39.90;;;20.53;;
8312;SDS011;4194;43.408;24.626;2024-02-16T05:58:23;35.20;;;19.90;;
8312;SDS011;4194;43.408;24.626;2024-02-16T06:00:49;29.77;;;16.70;;
8312;SDS011;4194;43.408;24.626;2024-02-16T06:03:15;28.90;;;15.67;;
8312;SDS011;4194;43.408;24.626;2024-02-16T06:05:41;32.00;;;16.27;;
8312;SDS011;4194;43.408;24.626;2024-02-16T06:08:12;25.27;;;16.17;;
8312;SDS011;4194;43.408;24.626;2024-02-16T06:10:38;21.57;;;13.50;;
8312;SDS011;4194;43.408;24.626;2024-02-16T06:13:05;26.80;;;13.73;;
8312;SDS011;4194;43.408;24.626;2024-02-16T06:15:31;25.67;;;15.03;;
8312;SDS011;4194;43.408;24.626;2024-02-16T06:17:59;25.30;;;14.27;;
8312;SDS011;4194;43.408;24.626;2024-02-16T06:20:25;24.17;;;13.00;;
8312;SDS011;4194;43.408;24.626;2024-02-16T06:22:51;22.20;;;15.30;;
8312;SDS011;4194;43.408;24.626;2024-02-16T06:25:17;25.37;;;15.80;;
8312;SDS011;4194;43.408;24.626;2024-02-16T06:27:43;21.00;;;15.30;;
8312;SDS011;4194;43.408;24.626;2024-02-16T06:30:09;28.57;;;16.23;;
8312;SDS011;4194;43.408;24.626;2024-02-16T06:32:38;32.50;;;17.57;;
8312;SDS011;4194;43.408;24.626;2024-02-16T06:35:05;37.83;;;17.87;;
8312;SDS011;4194;43.408;24.626;2024-02-16T06:37:32;43.30;;;19.33;;
8312;SDS011;4194;43.408;24.626;2024-02-16T06:39:58;35.17;;;17.77;;
8312;SDS011;4194;43.408;24.626;2024-02-16T06:42:24;30.13;;;16.37;;
8312;SDS011;4194;43.408;24.626;2024-02-16T06:44:49;27.53;;;15.23;;
8312;SDS011;4194;43.408;24.626;2024-02-16T06:47:15;25.07;;;15.20;;
8312;SDS011;4194;43.408;24.626;2024-02-16T06:49:41;28.70;;;15.80;;
8312;SDS011;4194;43.408;24.626;2024-02-16T06:52:06;27.60;;;15.17;;
8312;SDS011;4194;43.408;24.626;2024-02-16T06:54:34;29.00;;;14.60;;
8312;SDS011;4194;43.408;24.626;2024-02-16T06:57:00;23.07;;;13.93;;
8312;SDS011;4194;43.408;24.626;2024-02-16T06:59:26;24.13;;;12.77;;
8312;SDS011;4194;43.408;24.626;2024-02-16T07:01:52;25.87;;;13.80;;
8312;SDS011;4194;43.408;24.626;2024-02-16T07:04:18;21.63;;;13.80;;
8312;SDS011;4194;43.408;24.626;2024-02-16T07:06:43;29.43;;;15.27;;
8312;SDS011;4194;43.408;24.626;2024-02-16T07:09:09;25.37;;;15.57;;
8312;SDS011;4194;43.408;24.626;2024-02-16T07:11:35;26.23;;;14.97;;
8312;SDS011;4194;43.408;24.626;2024-02-16T07:14:04;30.63;;;13.93;;
8312;SDS011;4194;43.408;24.626;2024-02-16T07:16:32;22.03;;;13.73;;
8312;SDS011;4194;43.408;24.626;2024-02-16T07:18:58;19.57;;;13.13;;
8312;SDS011;4194;43.408;24.626;2024-02-16T07:21:24;29.97;;;14.33;;
8312;SDS011;4194;43.408;24.626;2024-02-16T07:23:51;27.30;;;15.60;;
8312;SDS011;4194;43.408;24.626;2024-02-16T07:26:17;24.70;;;14.57;;
8312;SDS011;4194;43.408;24.626;2024-02-16T07:28:43;25.57;;;14.20;;
8312;SDS011;4194;43.408;24.626;2024-02-16T07:31:09;13.57;;;10.17;;
8312;SDS011;4194;43.408;24.626;2024-02-16T07:33:36;18.83;;;9.80;;
8312;SDS011;4194;43.408;24.626;2024-02-16T07:36:02;19.10;;;10.30;;
8312;SDS011;4194;43.408;24.626;2024-02-16T07:38:28;20.20;;;9.70;;
8312;SDS011;4194;43.408;24.626;2024-02-16T07:40:53;22.43;;;11.20;;
8312;SDS011;4194;43.408;24.626;2024-02-16T07:43:19;16.63;;;11.07;;
8312;SDS011;4194;43.408;24.626;2024-02-16T07:45:46;17.97;;;10.43;;
8312;SDS011;4194;43.408;24.626;2024-02-16T07:48:13;20.50;;;9.87;;
8312;SDS011;4194;43.408;24.626;2024-02-16T07:50:39;15.33;;;10.47;;
8312;SDS011;4194;43.408;24.626;2024-02-16T07:53:04;15.23;;;11.20;;
8312;SDS011;4194;43.408;24.626;2024-02-16T07:55:30;15.70;;;10.67;;
8312;SDS011;4194;43.408;24.626;2024-02-16T07:57:56;18.47;;;12.57;;
8312;SDS011;4194;43.408;24.626;2024-02-16T08:00:21;39.87;;;22.23;;
8312;SDS011;4194;43.408;24.626;2024-02-16T08:02:47;20.93;;;14.77;;
8312;SDS011;4194;43.408;24.626;2024-02-16T08:05:14;21.10;;;11.77;;
8312;SDS011;4194;43.408;24.626;2024-02-16T08:07:40;19.03;;;11.63;;
8312;SDS011;4194;43.408;24.626;2024-02-16T08:10:09;23.47;;;11.83;;
8312;SDS011;4194;43.408;24.626;2024-02-16T08:12:35;17.97;;;10.67;;
8312;SDS011;4194;43.408;24.626;2024-02-16T08:15:02;17.00;;;11.10;;
8312;SDS011;4194;43.408;24.626;2024-02-16T08:17:29;15.93;;;11.17;;
8312;SDS011;4194;43.408;24.626;2024-02-16T08:19:56;14.57;;;10.30;;
8312;SDS011;4194;43.408;24.626;2024-02-16T08:22:21;20.73;;;12.00;;
8312;SDS011;4194;43.408;24.626;2024-02-16T08:24:48;18.90;;;11.37;;
8312;SDS011;4194;43.408;24.626;2024-02-16T08:27:15;19.73;;;11.50;;
8312;SDS011;4194;43.408;24.626;2024-02-16T08:29:41;15.93;;;10.40;;
8312;SDS011;4194;43.408;24.626;2024-02-16T08:32:07;17.43;;;11.37;;
8312;SDS011;4194;43.408;24.626;2024-02-16T08:34:34;15.67;;;11.20;;
8312;SDS011;4194;43.408;24.626;2024-02-16T08:37:02;17.07;;;11.17;;
8312;SDS011;4194;43.408;24.626;2024-02-16T08:39:29;14.97;;;11.40;;
8312;SDS011;4194;43.408;24.626;2024-02-16T08:41:55;15.50;;;11.17;;
8312;SDS011;4194;43.408;24.626;2024-02-16T08:44:21;17.27;;;11.80;;
8312;SDS011;4194;43.408;24.626;2024-02-16T08:46:47;27.20;;;15.03;;
8312;SDS011;4194;43.408;24.626;2024-02-16T08:49:14;34.17;;;17.20;;
8312;SDS011;4194;43.408;24.626;2024-02-16T08:51:41;44.63;;;18.67;;
8312;SDS011;4194;43.408;24.626;2024-02-16T08:54:07;35.37;;;16.20;;
8312;SDS011;4194;43.408;24.626;2024-02-16T08:56:33;32.03;;;17.43;;
8312;SDS011;4194;43.408;24.626;2024-02-16T08:59:01;35.40;;;17.00;;
8312;SDS011;4194;43.408;24.626;2024-02-16T09:01:39;27.37;;;15.60;;
8312;SDS011;4194;43.408;24.626;2024-02-16T09:04:05;26.93;;;16.73;;
8312;SDS011;4194;43.408;24.626;2024-02-16T09:06:30;34.40;;;15.23;;
8312;SDS011;4194;43.408;24.626;2024-02-16T09:09:00;32.57;;;17.23;;
8312;SDS011;4194;43.408;24.626;2024-02-16T09:11:26;25.77;;;16.10;;
8312;SDS011;4194;43.408;24.626;2024-02-16T09:13:52;22.67;;;14.07;;
8312;SDS011;4194;43.408;24.626;2024-02-16T09:16:18;22.20;;;14.07;;
8312;SDS011;4194;43.408;24.626;2024-02-16T09:18:44;21.23;;;12.77;;
8312;SDS011;4194;43.408;24.626;2024-02-16T09:21:10;20.93;;;12.40;;
8312;SDS011;4194;43.408;24.626;2024-02-16T09:23:36;19.27;;;12.70;;
8312;SDS011;4194;43.408;24.626;2024-02-16T09:26:02;19.53;;;13.53;;
8312;SDS011;4194;43.408;24.626;2024-02-16T09:28:29;28.10;;;13.03;;
8312;SDS011;4194;43.408;24.626;2024-02-16T09:30:55;21.60;;;13.30;;
8312;SDS011;4194;43.408;24.626;2024-02-16T09:33:21;23.33;;;13.03;;
8312;SDS011;4194;43.408;24.626;2024-02-16T09:35:48;16.97;;;12.50;;
8312;SDS011;4194;43.408;24.626;2024-02-16T09:38:14;17.30;;;12.10;;
8312;SDS011;4194;43.408;24.626;2024-02-16T09:40:40;18.20;;;13.00;;
8312;SDS011;4194;43.408;24.626;2024-02-16T09:43:06;15.03;;;11.90;;
8312;SDS011;4194;43.408;24.626;2024-02-16T09:45:32;17.07;;;11.30;;
8312;SDS011;4194;43.408;24.626;2024-02-16T09:47:58;16.57;;;11.33;;
8312;SDS011;4194;43.408;24.626;2024-02-16T09:50:24;21.40;;;11.33;;
8312;SDS011;4194;43.408;24.626;2024-02-16T09:52:52;18.23;;;11.23;;
8312;SDS011;4194;43.408;24.626;2024-02-16T09:55:19;13.90;;;10.27;;
8312;SDS011;4194;43.408;24.626;2024-02-16T09:57:44;14.23;;;11.10;;
8312;SDS011;4194;43.408;24.626;2024-02-16T10:00:10;19.10;;;12.87;;
8312;SDS011;4194;43.408;24.626;2024-02-16T10:02:44;20.20;;;11.93;;
8312;SDS011;4194;43.408;24.626;2024-02-16T10:05:14;23.57;;;11.77;;
8312;SDS011;4194;43.408;24.626;2024-02-16T10:07:40;16.37;;;11.70;;
8312;SDS011;4194;43.408;24.626;2024-02-16T10:10:07;20.63;;;12.33;;
8312;SDS011;4194;43.408;24.626;2024-02-16T10:12:48;21.87;;;11.73;;
8312;SDS011;4194;43.408;24.626;2024-02-16T10:15:21;20.13;;;11.70;;
8312;SDS011;4194;43.408;24.626;2024-02-16T10:18:03;16.93;;;11.83;;
8312;SDS011;4194;43.408;24.626;2024-02-16T10:20:32;17.53;;;11.50;;
8312;SDS011;4194;43.408;24.626;2024-02-16T10:23:05;20.83;;;11.40;;
8312;SDS011;4194;43.408;24.626;2024-02-16T10:25:32;23.27;;;12.27;;
8312;SDS011;4194;43.408;24.626;2024-02-16T10:28:03;17.83;;;13.27;;
8312;SDS011;4194;43.408;24.626;2024-02-16T10:30:31;17.70;;;12.47;;
8312;SDS011;4194;43.408;24.626;2024-02-16T10:33:01;17.73;;;12.13;;
8312;SDS011;4194;43.408;24.626;2024-02-16T10:35:27;21.63;;;12.33;;
8312;SDS011;4194;43.408;24.626;2024-02-16T10:37:54;13.87;;;11.30;;
8312;SDS011;4194;43.408;24.626;2024-02-16T10:40:22;17.03;;;11.60;;
8312;SDS011;4194;43.408;24.626;2024-02-16T10:42:51;14.80;;;11.87;;
8312;SDS011;4194;43.408;24.626;2024-02-16T10:45:17;18.67;;;11.60;;
8312;SDS011;4194;43.408;24.626;2024-02-16T10:47:46;16.57;;;11.57;;
8312;SDS011;4194;43.408;24.626;2024-02-16T10:50:12;19.87;;;12.80;;
8312;SDS011;4194;43.408;24.626;2024-02-16T10:52:39;20.07;;;12.10;;
8312;SDS011;4194;43.408;24.626;2024-02-16T10:55:09;17.87;;;12.73;;
8312;SDS011;4194;43.408;24.626;2024-02-16T10:57:36;18.13;;;11.23;;
8312;SDS011;4194;43.408;24.626;2024-02-16T11:00:09;12.77;;;11.20;;
8312;SDS011;4194;43.408;24.626;2024-02-16T11:05:20;13.87;;;11.17;;
8312;SDS011;4194;43.408;24.626;2024-02-16T11:08:04;13.73;;;10.90;;
8312;SDS011;4194;43.408;24.626;2024-02-16T11:10:37;15.83;;;11.43;;
8312;SDS011;4194;43.408;24.626;2024-02-16T11:13:03;16.83;;;11.03;;
8312;SDS011;4194;43.408;24.626;2024-02-16T11:15:33;13.93;;;10.87;;
8312;SDS011;4194;43.408;24.626;2024-02-16T11:18:00;15.77;;;11.20;;
8312;SDS011;4194;43.408;24.626;2024-02-16T11:20:27;14.53;;;9.97;;
8312;SDS011;4194;43.408;24.626;2024-02-16T11:22:53;12.73;;;10.33;;
8312;SDS011;4194;43.408;24.626;2024-02-16T11:25:19;18.87;;;10.53;;
8312;SDS011;4194;43.408;24.626;2024-02-16T11:27:55;14.27;;;11.10;;
8312;SDS011;4194;43.408;24.626;2024-02-16T11:30:21;16.07;;;11.50;;
8312;SDS011;4194;43.408;24.626;2024-02-16T11:32:47;21.93;;;11.90;;
8312;SDS011;4194;43.408;24.626;2024-02-16T11:35:12;15.73;;;11.20;;
8312;SDS011;4194;43.408;24.626;2024-02-16T11:37:38;14.33;;;10.90;;
8312;SDS011;4194;43.408;24.626;2024-02-16T11:40:04;13.73;;;10.97;;
8312;SDS011;4194;43.408;24.626;2024-02-16T11:42:33;13.87;;;10.70;;
8312;SDS011;4194;43.408;24.626;2024-02-16T11:45:00;15.20;;;11.03;;
8312;SDS011;4194;43.408;24.626;2024-02-16T11:47:26;18.93;;;11.70;;
8312;SDS011;4194;43.408;24.626;2024-02-16T11:50:02;14.93;;;10.73;;
8312;SDS011;4194;43.408;24.626;2024-02-16T11:52:32;13.03;;;9.83;;
8312;SDS011;4194;43.408;24.626;2024-02-16T11:54:59;12.47;;;9.53;;
8312;SDS011;4194;43.408;24.626;2024-02-16T11:57:29;11.87;;;9.67;;
8312;SDS011;4194;43.408;24.626;2024-02-16T11:59:55;11.20;;;9.40;;
8312;SDS011;4194;43.408;24.626;2024-02-16T12:02:21;9.93;;;8.33;;
8312;SDS011;4194;43.408;24.626;2024-02-16T12:04:56;11.23;;;9.57;;
8312;SDS011;4194;43.408;24.626;2024-02-16T12:07:25;13.03;;;9.50;;
8312;SDS011;4194;43.408;24.626;2024-02-16T12:09:59;16.50;;;11.10;;
8312;SDS011;4194;43.408;24.626;2024-02-16T12:12:26;14.17;;;10.90;;
8312;SDS011;4194;43.408;24.626;2024-02-16T12:14:53;13.27;;;8.93;;
8312;SDS011;4194;43.408;24.626;2024-02-16T12:17:19;10.90;;;8.83;;
8312;SDS011;4194;43.408;24.626;2024-02-16T12:19:45;10.13;;;8.77;;
8312;SDS011;4194;43.408;24.626;2024-02-16T12:22:21;11.90;;;9.80;;
8312;SDS011;4194;43.408;24.626;2024-02-16T12:24:47;11.83;;;9.77;;
8312;SDS011;4194;43.408;24.626;2024-02-16T12:27:13;12.40;;;9.33;;
8312;SDS011;4194;43.408;24.626;2024-02-16T12:29:42;12.10;;;8.43;;
8312;SDS011;4194;43.408;24.626;2024-02-16T12:32:08;11.67;;;8.97;;
8312;SDS011;4194;43.408;24.626;2024-02-16T12:34:37;10.40;;;9.03;;
8312;SDS011;4194;43.408;24.626;2024-02-16T12:37:06;11.03;;;9.00;;
8312;SDS011;4194;43.408;24.626;2024-02-16T12:39:33;10.37;;;8.47;;
8312;SDS011;4194;43.408;24.626;2024-02-16T12:41:59;10.73;;;8.27;;
8312;SDS011;4194;43.408;24.626;2024-02-16T12:44:25;9.83;;;8.83;;
8312;SDS011;4194;43.408;24.626;2024-02-16T12:46:51;12.47;;;8.77;;
8312;SDS011;4194;43.408;24.626;2024-02-16T12:49:16;10.80;;;8.17;;
8312;SDS011;4194;43.408;24.626;2024-02-16T12:51:43;10.40;;;8.10;;
8312;SDS011;4194;43.408;24.626;2024-02-16T12:54:11;10.30;;;8.23;;
8312;SDS011;4194;43.408;24.626;2024-02-16T12:56:39;10.17;;;8.57;;
8312;SDS011;4194;43.408;24.626;2024-02-16T12:59:05;10.17;;;8.17;;
8312;SDS011;4194;43.408;24.626;2024-02-16T13:01:31;9.77;;;8.23;;
8312;SDS011;4194;43.408;24.626;2024-02-16T13:03:57;11.53;;;8.93;;
8312;SDS011;4194;43.408;24.626;2024-02-16T13:06:22;11.67;;;8.67;;
8312;SDS011;4194;43.408;24.626;2024-02-16T13:08:48;10.17;;;8.17;;
8312;SDS011;4194;43.408;24.626;2024-02-16T13:11:14;9.07;;;7.40;;
8312;SDS011;4194;43.408;24.626;2024-02-16T13:13:40;9.47;;;7.80;;
8312;SDS011;4194;43.408;24.626;2024-02-16T13:16:05;16.53;;;9.00;;
8312;SDS011;4194;43.408;24.626;2024-02-16T13:18:31;9.63;;;8.17;;
8312;SDS011;4194;43.408;24.626;2024-02-16T13:20:57;9.87;;;8.10;;
8312;SDS011;4194;43.408;24.626;2024-02-16T13:23:23;11.80;;;9.40;;
8312;SDS011;4194;43.408;24.626;2024-02-16T13:25:48;14.23;;;10.00;;
8312;SDS011;4194;43.408;24.626;2024-02-16T13:28:15;14.40;;;10.43;;
8312;SDS011;4194;43.408;24.626;2024-02-16T13:30:41;12.20;;;8.80;;
8312;SDS011;4194;43.408;24.626;2024-02-16T13:33:07;11.53;;;8.80;;
8312;SDS011;4194;43.408;24.626;2024-02-16T13:35:35;12.30;;;9.47;;
8312;SDS011;4194;43.408;24.626;2024-02-16T13:38:02;11.43;;;9.33;;
8312;SDS011;4194;43.408;24.626;2024-02-16T13:40:28;14.33;;;9.83;;
8312;SDS011;4194;43.408;24.626;2024-02-16T13:42:54;9.63;;;8.53;;
8312;SDS011;4194;43.408;24.626;2024-02-16T13:45:27;10.90;;;8.70;;
8312;SDS011;4194;43.408;24.626;2024-02-16T13:48:13;10.97;;;8.53;;
8312;SDS011;4194;43.408;24.626;2024-02-16T13:50:38;10.63;;;8.53;;
8312;SDS011;4194;43.408;24.626;2024-02-16T13:53:04;8.77;;;7.87;;
8312;SDS011;4194;43.408;24.626;2024-02-16T13:55:30;9.93;;;7.60;;
8312;SDS011;4194;43.408;24.626;2024-02-16T13:57:55;7.87;;;7.07;;
8312;SDS011;4194;43.408;24.626;2024-02-16T14:00:21;7.53;;;6.13;;
8312;SDS011;4194;43.408;24.626;2024-02-16T14:02:47;8.87;;;6.83;;
8312;SDS011;4194;43.408;24.626;2024-02-16T14:05:12;7.73;;;6.83;;
8312;SDS011;4194;43.408;24.626;2024-02-16T14:07:38;10.23;;;7.53;;
8312;SDS011;4194;43.408;24.626;2024-02-16T14:10:04;9.47;;;7.40;;
8312;SDS011;4194;43.408;24.626;2024-02-16T14:12:30;9.17;;;6.90;;
8312;SDS011;4194;43.408;24.626;2024-02-16T14:14:56;8.10;;;6.37;;
8312;SDS011;4194;43.408;24.626;2024-02-16T14:17:21;8.93;;;6.10;;
8312;SDS011;4194;43.408;24.626;2024-02-16T14:19:47;9.70;;;6.30;;
8312;SDS011;4194;43.408;24.626;2024-02-16T14:22:13;11.77;;;6.90;;
8312;SDS011;4194;43.408;24.626;2024-02-16T14:24:38;7.90;;;7.10;;
8312;SDS011;4194;43.408;24.626;2024-02-16T14:27:04;9.57;;;7.63;;
8312;SDS011;4194;43.408;24.626;2024-02-16T14:29:30;8.70;;;7.20;;
8312;SDS011;4194;43.408;24.626;2024-02-16T14:31:55;8.20;;;6.60;;
8312;SDS011;4194;43.408;24.626;2024-02-16T14:34:21;9.67;;;6.87;;
8312;SDS011;4194;43.408;24.626;2024-02-16T14:36:47;7.83;;;6.57;;
8312;SDS011;4194;43.408;24.626;2024-02-16T14:39:13;8.33;;;6.87;;